SAS1693 EKCH-LIRF
Flight info
| Callsign | SAS1693 |
|---|---|
| Flight time | N/A |
| Altitude | 37000 |
| Route | NEXEN T503 GIMRU DCT MICOS DCT NEBUN DCT EMBOX DCT AKOSI M736 RUDNO DCT SIMBA DCT MORED DCT PIDEP DCT DIPVO DCT NIKMA DCT RITEB |
| Aircraft | A320/M-SDE3FGHIRWY/LB1 |
Departure
| Time | 2026-04-24 15:59 |
|---|---|
| Airport | Copenhagen Kastrup Airport (EKCH) |
Arrival
| Time | N/A |
|---|---|
| Airport | Rome–Fiumicino Leonardo da Vinci International Airport (LIRF) |
| Time | Latitude | Longitude | Altitude | Speed | Heading |
|---|---|---|---|---|---|
| 2026-04-24 15:54 | 55.61895 | 12.64818 | 23 ft | 21 kts | 213° |
| 2026-04-24 15:54 | 55.61765 | 12.64666 | 26 ft | 23 kts | 213° |
| 2026-04-24 15:54 | 55.61624 | 12.64501 | 24 ft | 25 kts | 213° |
| 2026-04-24 15:55 | 55.61471 | 12.64328 | 25 ft | 27 kts | 212° |
| 2026-04-24 15:55 | 55.61308 | 12.64143 | 24 ft | 29 kts | 213° |
| 2026-04-24 15:55 | 55.61155 | 12.63969 | 24 ft | 18 kts | 213° |
| 2026-04-24 15:55 | 55.61043 | 12.63839 | 24 ft | 20 kts | 213° |
| 2026-04-24 15:56 | 55.60928 | 12.63705 | 24 ft | 20 kts | 213° |
| 2026-04-24 15:56 | 55.60835 | 12.63600 | 25 ft | 14 kts | 212° |
| 2026-04-24 15:56 | 55.60747 | 12.63498 | 24 ft | 16 kts | 213° |
| 2026-04-24 15:56 | 55.60646 | 12.63375 | 24 ft | 19 kts | 218° |
| 2026-04-24 15:57 | 55.60576 | 12.63269 | 24 ft | 10 kts | 220° |
| 2026-04-24 15:57 | 55.60509 | 12.63218 | 24 ft | 12 kts | 172° |
| 2026-04-24 15:57 | 55.60442 | 12.63319 | 24 ft | 13 kts | 129° |
| 2026-04-24 15:57 | 55.60404 | 12.63408 | 27 ft | 7 kts | 112° |
| 2026-04-24 15:58 | 55.60434 | 12.63490 | 26 ft | 8 kts | 45° |
| 2026-04-24 15:58 | 55.60442 | 12.63504 | 24 ft | 0 kts | 42° |
| 2026-04-24 15:58 | 55.60523 | 12.63630 | 25 ft | 47 kts | 41° |
| 2026-04-24 15:58 | 55.60987 | 12.64344 | 23 ft | 126 kts | 41° |
| 2026-04-24 15:59 | 55.61804 | 12.65596 | 69 ft | 178 kts | 39° |
| 2026-04-24 15:59 | 55.62790 | 12.67032 | 735 ft | 187 kts | 40° |
| 2026-04-24 15:59 | 55.63768 | 12.68552 | 1347 ft | 193 kts | 41° |
| 2026-04-24 15:59 | 55.64807 | 12.70193 | 1738 ft | 205 kts | 41° |
| 2026-04-24 16:00 | 55.65890 | 12.71878 | 2238 ft | 215 kts | 41° |
| 2026-04-24 16:00 | 55.67091 | 12.73694 | 2558 ft | 238 kts | 40° |
| 2026-04-24 16:00 | 55.68393 | 12.75683 | 3109 ft | 253 kts | 45° |
| 2026-04-24 16:00 | 55.69386 | 12.78265 | 3888 ft | 257 kts | 68° |
| 2026-04-24 16:01 | 55.69750 | 12.81375 | 4699 ft | 261 kts | 90° |
| 2026-04-24 16:01 | 55.69404 | 12.84522 | 5503 ft | 264 kts | 114° |
| 2026-04-24 16:01 | 55.68397 | 12.87185 | 6277 ft | 267 kts | 136° |
| 2026-04-24 16:01 | 55.66820 | 12.88998 | 7058 ft | 270 kts | 159° |
| 2026-04-24 16:02 | 55.65075 | 12.90116 | 7827 ft | 272 kts | 160° |
| 2026-04-24 16:02 | 55.63266 | 12.91166 | 8571 ft | 275 kts | 168° |
| 2026-04-24 16:02 | 55.61354 | 12.91374 | 9291 ft | 278 kts | 186° |
| 2026-04-24 16:02 | 55.59476 | 12.90492 | 9994 ft | 281 kts | 205° |
| 2026-04-24 16:03 | 55.57810 | 12.88594 | 10425 ft | 296 kts | 223° |
| 2026-04-24 16:03 | 55.56309 | 12.85904 | 10567 ft | 319 kts | 226° |
| 2026-04-24 16:03 | 55.54716 | 12.82983 | 10730 ft | 338 kts | 226° |
| 2026-04-24 16:03 | 55.53079 | 12.79982 | 11400 ft | 341 kts | 226° |
| 2026-04-24 16:04 | 55.51429 | 12.76957 | 12030 ft | 343 kts | 227° |
| 2026-04-24 16:04 | 55.49823 | 12.73806 | 12635 ft | 346 kts | 229° |
| 2026-04-24 16:04 | 55.48266 | 12.70549 | 13232 ft | 349 kts | 230° |
| 2026-04-24 16:04 | 55.46719 | 12.67219 | 13794 ft | 352 kts | 231° |
| 2026-04-24 16:05 | 55.43585 | 12.60487 | 14907 ft | 358 kts | 230° |
| 2026-04-24 16:05 | 55.41987 | 12.57103 | 15436 ft | 361 kts | 230° |
| 2026-04-24 16:06 | 55.38730 | 12.50290 | 16470 ft | 366 kts | 230° |
| 2026-04-24 16:06 | 55.37078 | 12.46854 | 16961 ft | 369 kts | 230° |
| 2026-04-24 16:06 | 55.33733 | 12.39915 | 17997 ft | 375 kts | 230° |
| 2026-04-24 16:07 | 55.32038 | 12.36410 | 18514 ft | 378 kts | 230° |
| 2026-04-24 16:07 | 55.30334 | 12.32890 | 19024 ft | 381 kts | 230° |
| 2026-04-24 16:07 | 55.26896 | 12.25804 | 20039 ft | 386 kts | 230° |
| 2026-04-24 16:08 | 55.25124 | 12.22163 | 20538 ft | 389 kts | 229° |
| 2026-04-24 16:08 | 55.21615 | 12.14953 | 21452 ft | 394 kts | 229° |
| 2026-04-24 16:09 | 55.17465 | 12.08599 | 22294 ft | 399 kts | 216° |
| 2026-04-24 16:09 | 55.15214 | 12.05726 | 22695 ft | 402 kts | 216° |
| 2026-04-24 16:09 | 55.13688 | 12.03782 | 22955 ft | 403 kts | 216° |
| 2026-04-24 16:09 | 55.10672 | 11.99932 | 23460 ft | 406 kts | 216° |
| 2026-04-24 16:10 | 55.03770 | 11.91138 | 24515 ft | 413 kts | 216° |
| 2026-04-24 16:11 | 54.99096 | 11.85208 | 25199 ft | 417 kts | 216° |
| 2026-04-24 16:11 | 54.96744 | 11.82238 | 25527 ft | 419 kts | 216° |
| 2026-04-24 16:11 | 54.94377 | 11.79255 | 25853 ft | 421 kts | 216° |
| 2026-04-24 16:12 | 54.89610 | 11.73241 | 26486 ft | 425 kts | 216° |
| 2026-04-24 16:12 | 54.87205 | 11.70213 | 26794 ft | 427 kts | 216° |
| 2026-04-24 16:12 | 54.82367 | 11.64142 | 27393 ft | 431 kts | 216° |
| 2026-04-24 16:13 | 54.79933 | 11.61091 | 27756 ft | 431 kts | 216° |
| 2026-04-24 16:13 | 54.75085 | 11.55034 | 28569 ft | 429 kts | 216° |
| 2026-04-24 16:14 | 54.70303 | 11.49075 | 29652 ft | 419 kts | 216° |
| 2026-04-24 16:14 | 54.67938 | 11.46131 | 30087 ft | 418 kts | 216° |
| 2026-04-24 16:14 | 54.63233 | 11.40292 | 30873 ft | 416 kts | 216° |
| 2026-04-24 16:15 | 54.61681 | 11.38371 | 31124 ft | 415 kts | 216° |
| 2026-04-24 16:15 | 54.56200 | 11.31606 | 31991 ft | 413 kts | 216° |
| 2026-04-24 16:16 | 54.51559 | 11.25925 | 32705 ft | 412 kts | 215° |
| 2026-04-24 16:16 | 54.49207 | 11.23074 | 33067 ft | 411 kts | 215° |
| 2026-04-24 16:17 | 54.42206 | 11.14597 | 34017 ft | 410 kts | 215° |
| 2026-04-24 16:17 | 54.38305 | 11.09876 | 34369 ft | 413 kts | 215° |
| 2026-04-24 16:18 | 54.33510 | 11.04481 | 34756 ft | 416 kts | 206° |
| 2026-04-24 16:18 | 54.27998 | 11.01660 | 35243 ft | 415 kts | 186° |
| 2026-04-24 16:18 | 54.25119 | 11.01512 | 35483 ft | 414 kts | 176° |
| 2026-04-24 16:19 | 54.19383 | 11.02514 | 35952 ft | 414 kts | 174° |
| 2026-04-24 16:19 | 54.16522 | 11.03018 | 36177 ft | 413 kts | 174° |
| 2026-04-24 16:20 | 54.10801 | 11.03999 | 36603 ft | 413 kts | 174° |
| 2026-04-24 16:20 | 54.05053 | 11.04985 | 36888 ft | 415 kts | 174° |
| 2026-04-24 16:20 | 54.02173 | 11.05483 | 36993 ft | 418 kts | 174° |
| 2026-04-24 16:21 | 53.93345 | 11.07022 | 37010 ft | 431 kts | 174° |
| 2026-04-24 16:22 | 53.87362 | 11.08066 | 37009 ft | 433 kts | 174° |
| 2026-04-24 16:22 | 53.78363 | 11.09618 | 37009 ft | 433 kts | 174° |
| 2026-04-24 16:23 | 53.72358 | 11.10637 | 37012 ft | 434 kts | 174° |
| 2026-04-24 16:24 | 53.63337 | 11.12180 | 37021 ft | 435 kts | 174° |
| 2026-04-24 16:24 | 53.57323 | 11.13200 | 37025 ft | 435 kts | 174° |
| 2026-04-24 16:25 | 53.51297 | 11.14225 | 37028 ft | 435 kts | 174° |
| 2026-04-24 16:25 | 53.45270 | 11.15248 | 37029 ft | 435 kts | 174° |
| 2026-04-24 16:26 | 53.36271 | 11.16755 | 37031 ft | 435 kts | 174° |
| 2026-04-24 16:27 | 53.27197 | 11.18287 | 37031 ft | 435 kts | 174° |
| 2026-04-24 16:27 | 53.21211 | 11.19289 | 37031 ft | 435 kts | 174° |
| 2026-04-24 16:28 | 53.15187 | 11.20299 | 37031 ft | 435 kts | 174° |
| 2026-04-24 16:28 | 53.06153 | 11.21796 | 37031 ft | 435 kts | 174° |
| 2026-04-24 16:29 | 53.00118 | 11.22666 | 37031 ft | 435 kts | 175° |
| 2026-04-24 16:30 | 52.88049 | 11.24198 | 37035 ft | 435 kts | 175° |
| 2026-04-24 16:30 | 52.82016 | 11.24990 | 37035 ft | 435 kts | 175° |
| 2026-04-24 16:31 | 52.75973 | 11.25790 | 37030 ft | 435 kts | 175° |
| 2026-04-24 16:31 | 52.69941 | 11.26598 | 37030 ft | 435 kts | 175° |
| 2026-04-24 16:32 | 52.63904 | 11.27409 | 37034 ft | 435 kts | 175° |
| 2026-04-24 16:32 | 52.57912 | 11.28204 | 37029 ft | 435 kts | 175° |
| 2026-04-24 16:33 | 52.51865 | 11.28980 | 37030 ft | 435 kts | 175° |
| 2026-04-24 16:33 | 52.45826 | 11.29768 | 37030 ft | 435 kts | 175° |
| 2026-04-24 16:34 | 52.39792 | 11.30564 | 37031 ft | 435 kts | 175° |
| 2026-04-24 16:34 | 52.33752 | 11.31348 | 37030 ft | 435 kts | 175° |
| 2026-04-24 16:35 | 52.27718 | 11.32130 | 37030 ft | 435 kts | 175° |
| 2026-04-24 16:35 | 52.21675 | 11.32910 | 37030 ft | 435 kts | 175° |
| 2026-04-24 16:36 | 52.15635 | 11.33688 | 37029 ft | 435 kts | 175° |
| 2026-04-24 16:36 | 52.09590 | 11.34468 | 37016 ft | 436 kts | 175° |
| 2026-04-24 16:37 | 52.03548 | 11.35684 | 36987 ft | 440 kts | 168° |
| 2026-04-24 16:37 | 51.97581 | 11.37654 | 36987 ft | 442 kts | 168° |
| 2026-04-24 16:38 | 51.91526 | 11.39637 | 36994 ft | 444 kts | 168° |
| 2026-04-24 16:38 | 51.85464 | 11.41622 | 37002 ft | 445 kts | 168° |
| 2026-04-24 16:39 | 51.79390 | 11.43610 | 37012 ft | 446 kts | 168° |
| 2026-04-24 16:39 | 51.73297 | 11.45593 | 37021 ft | 446 kts | 168° |
| 2026-04-24 16:40 | 51.67207 | 11.47573 | 37025 ft | 447 kts | 168° |
| 2026-04-24 16:40 | 51.61107 | 11.49554 | 37027 ft | 447 kts | 168° |
| 2026-04-24 16:41 | 51.55008 | 11.51523 | 37028 ft | 447 kts | 168° |
| 2026-04-24 16:41 | 51.48984 | 11.53463 | 37032 ft | 447 kts | 168° |
| 2026-04-24 16:42 | 51.43432 | 11.55253 | 37037 ft | 448 kts | 168° |
| 2026-04-24 16:42 | 51.37383 | 11.57176 | 37031 ft | 448 kts | 169° |
| 2026-04-24 16:43 | 51.31278 | 11.59121 | 37031 ft | 448 kts | 168° |
| 2026-04-24 16:43 | 51.25164 | 11.61081 | 37032 ft | 447 kts | 168° |
| 2026-04-24 16:44 | 51.19063 | 11.63027 | 37031 ft | 447 kts | 168° |
| 2026-04-24 16:44 | 51.12956 | 11.64964 | 37030 ft | 448 kts | 168° |
| 2026-04-24 16:45 | 51.06842 | 11.66896 | 37031 ft | 448 kts | 169° |
| 2026-04-24 16:45 | 51.00734 | 11.68808 | 37034 ft | 448 kts | 169° |
| 2026-04-24 16:46 | 50.94659 | 11.70715 | 37030 ft | 448 kts | 169° |
| 2026-04-24 16:46 | 50.88517 | 11.72648 | 37029 ft | 448 kts | 168° |
| 2026-04-24 16:47 | 50.82439 | 11.74563 | 37030 ft | 448 kts | 169° |
| 2026-04-24 16:47 | 50.76326 | 11.76473 | 37033 ft | 448 kts | 169° |
| 2026-04-24 16:48 | 50.70201 | 11.78377 | 37032 ft | 448 kts | 169° |
| 2026-04-24 16:48 | 50.64077 | 11.80264 | 37029 ft | 449 kts | 169° |
| 2026-04-24 16:49 | 50.57949 | 11.82159 | 37028 ft | 449 kts | 169° |
| 2026-04-24 16:49 | 50.51816 | 11.84053 | 37027 ft | 449 kts | 169° |
| 2026-04-24 16:50 | 50.45680 | 11.85946 | 37027 ft | 449 kts | 169° |
| 2026-04-24 16:50 | 50.39543 | 11.87838 | 37031 ft | 450 kts | 169° |
| 2026-04-24 16:51 | 50.33393 | 11.89722 | 37034 ft | 450 kts | 169° |
| 2026-04-24 16:51 | 50.27244 | 11.91603 | 37030 ft | 450 kts | 169° |
| 2026-04-24 16:52 | 50.21105 | 11.93468 | 37030 ft | 450 kts | 169° |
| 2026-04-24 16:52 | 50.14958 | 11.95329 | 37029 ft | 450 kts | 169° |
| 2026-04-24 16:53 | 50.08813 | 11.97192 | 37029 ft | 450 kts | 169° |
| 2026-04-24 16:53 | 50.02672 | 11.99063 | 37029 ft | 450 kts | 169° |
| 2026-04-24 16:54 | 49.96522 | 12.00922 | 37028 ft | 450 kts | 169° |
| 2026-04-24 16:54 | 49.90372 | 12.02772 | 37028 ft | 450 kts | 169° |
| 2026-04-24 16:55 | 49.84216 | 12.04613 | 37032 ft | 450 kts | 169° |
| 2026-04-24 16:55 | 49.78105 | 12.06434 | 37030 ft | 450 kts | 169° |
| 2026-04-24 16:56 | 49.72038 | 12.08762 | 37035 ft | 449 kts | 158° |
| 2026-04-24 16:56 | 49.66650 | 12.13570 | 37033 ft | 449 kts | 147° |
| 2026-04-24 16:57 | 49.61005 | 12.17618 | 37028 ft | 448 kts | 159° |
| 2026-04-24 16:57 | 49.55174 | 12.21026 | 37026 ft | 448 kts | 159° |
| 2026-04-24 16:58 | 49.49292 | 12.24253 | 37026 ft | 449 kts | 162° |
| 2026-04-24 16:58 | 49.43337 | 12.27144 | 37027 ft | 449 kts | 163° |
| 2026-04-24 16:59 | 49.37373 | 12.29984 | 37028 ft | 449 kts | 162° |
| 2026-04-24 17:00 | 49.28445 | 12.34352 | 37029 ft | 449 kts | 162° |
| 2026-04-24 17:00 | 49.19528 | 12.38753 | 37032 ft | 449 kts | 162° |
| 2026-04-24 17:01 | 49.10622 | 12.43090 | 37028 ft | 449 kts | 162° |
| 2026-04-24 17:02 | 49.01688 | 12.47434 | 37029 ft | 449 kts | 162° |
| 2026-04-24 17:02 | 48.95733 | 12.50324 | 37030 ft | 449 kts | 162° |
| 2026-04-24 17:03 | 48.86851 | 12.54616 | 37031 ft | 449 kts | 162° |
| 2026-04-24 17:04 | 48.80909 | 12.57487 | 37031 ft | 448 kts | 162° |
| 2026-04-24 17:04 | 48.72950 | 12.61316 | 37031 ft | 448 kts | 162° |
| 2026-04-24 17:05 | 48.66039 | 12.64622 | 37029 ft | 448 kts | 162° |
| 2026-04-24 17:06 | 48.58075 | 12.68417 | 37028 ft | 448 kts | 162° |
| 2026-04-24 17:06 | 48.49149 | 12.72675 | 37028 ft | 449 kts | 162° |
| 2026-04-24 17:07 | 48.43232 | 12.75489 | 37027 ft | 449 kts | 162° |
| 2026-04-24 17:08 | 48.31319 | 12.81110 | 37028 ft | 449 kts | 162° |
| 2026-04-24 17:08 | 48.25357 | 12.83924 | 37030 ft | 449 kts | 162° |
| 2026-04-24 17:09 | 48.13445 | 12.89530 | 37036 ft | 449 kts | 162° |
| 2026-04-24 17:10 | 48.01516 | 12.95092 | 37035 ft | 449 kts | 162° |
| 2026-04-24 17:12 | 47.77334 | 12.99347 | 37031 ft | 443 kts | 188° |